Casmalia, California
Current Conditions -  °F | °C
As of 10:51 AM on Thursday 30 Oct 2014 (Local Time) from KSMX Reporting Station
Broken Clouds Broken Clouds  
Wind Chill: 77°   Ceiling: 20000
Heat Index: 78°   Visibility: 10mi
Dew Point: 41°   Wind: 8mph
Humidity: 28%   Direction: 290°WNW
Pressure: 29.98"   Gusts: NA
Location:  34.84°N, 120.53°W
Report Text: KSMX 301751Z 29007KT 10SM BKN200 25/05 A2998 RMK AO2 SLP150 T02500050 10250 20128 50002
Loading
Personal Weather Stations






























Interactive Weather Map
Tropical Storm Tracking
New forecast layout! Learn more

10-Day Weather Forecast

Advertisements
Track Severe Weather on mobile